»·PEaware :: N751LU KMSO-KBIL

N751LU :: KMSO-KBIL

FLIGHT INFORMATION

Flight Status: Arrived
Operator: Privately registered:
United States
More flights under this callsign
Pilot: Ewen S. (18928)
Aircraft: CANADAIR CL-600 CHALLENGER
(CL60)
More flights by this aircraft type
Origin: KMSO Missoula Intl
United States
Destination: KBIL Billings Logan Intl
United States
More flights between these airports :: More routes between these airports
Route: VICTO1 HLN LOKOW CRAZI4
File this flight plan on PilotEdge
Remarks:
Altitude:
(Current/Filed)
35,000ft
Speed:
(Current/Filed)
430kts
Departed: 28-Nov-23 01:04 PM
Arrived: 28-Nov-23 01:49 PM
Distance/Time
Traveled:
240nm/0:45
Distance/Time
To Go:
Arrived

Flight Plot

Page will automatically refresh every two minutes.

Flight plan parsing failed; only flown route is shown


Map Options




Map Legend


Flown Route
Filed Route
Departure Airport
Arrival Airport
Navaid (VOR, NDB)
Fix

Horizontal Profiles

Position Reports

Time Latitude Longitude Heading Altitude Ground
Speed
28-Nov-23 12:39 46.914328 -114.080388 88 3208ft 0kts
28-Nov-23 12:40 46.914328 -114.080388 88 3208ft 0kts
28-Nov-23 12:41 46.914328 -114.080388 88 3208ft 0kts
28-Nov-23 12:42 46.914328 -114.080388 88 3208ft 0kts
28-Nov-23 12:43 46.914328 -114.080388 88 3208ft 0kts
28-Nov-23 12:44 46.914328 -114.080388 88 3208ft 0kts
28-Nov-23 12:45 46.914328 -114.080388 88 3208ft 0kts
28-Nov-23 12:46 46.914328 -114.080388 88 3208ft 0kts
28-Nov-23 12:47 46.914328 -114.080388 88 3208ft 0kts
28-Nov-23 12:48 46.914328 -114.080388 88 3208ft 0kts
28-Nov-23 12:49 46.914328 -114.080388 88 3208ft 0kts
28-Nov-23 12:50 46.914328 -114.080388 88 3208ft 0kts
28-Nov-23 12:51 46.914328 -114.080388 88 3208ft 0kts
28-Nov-23 12:52 46.914328 -114.080388 88 3208ft 0kts
28-Nov-23 12:53 46.914328 -114.080388 88 3208ft 0kts
28-Nov-23 12:54 46.914328 -114.080388 88 3208ft 0kts
28-Nov-23 12:55 46.914328 -114.080388 88 3208ft 0kts
28-Nov-23 12:56 46.914328 -114.080388 88 3208ft 0kts
28-Nov-23 12:57 46.914511 -114.080059 23 3208ft 0kts
28-Nov-23 12:58 46.913865 -114.081146 202 3207ft 17kts
28-Nov-23 12:59 46.915459 -114.086783 310 3204ft 19kts
28-Nov-23 13:00 46.919517 -114.093632 310 3206ft 25kts
28-Nov-23 13:00 46.924064 -114.101430 311 3200ft 30kts
28-Nov-23 13:02 46.925596 -114.105455 224 3208ft 0kts
28-Nov-23 13:03 46.925596 -114.105456 224 3208ft 0kts
28-Nov-23 13:04 46.918990 -114.096568 130 3203ft 142kts
28-Nov-23 13:04 46.889137 -114.046224 145 5487ft 229kts
28-Nov-23 13:05 46.824256 -114.047894 192 9338ft 254kts
28-Nov-23 13:07 46.735352 -114.050589 174 13934ft 314kts
28-Nov-23 13:08 46.646877 -114.030138 174 16763ft 323kts
28-Nov-23 13:08 46.586740 -113.968427 116 20092ft 348kts
28-Nov-23 13:09 46.582777 -113.822594 88 23209ft 376kts
28-Nov-23 13:11 46.587258 -113.638723 89 26425ft 401kts
28-Nov-23 13:11 46.590296 -113.500826 89 28376ft 416kts
28-Nov-23 13:12 46.593770 -113.328933 90 30411ft 431kts
28-Nov-23 13:13 46.597005 -113.153764 90 32013ft 446kts
28-Nov-23 13:14 46.600063 -112.971058 90 33422ft 457kts
28-Nov-23 13:15 46.602847 -112.785670 90 34576ft 469kts
28-Nov-23 13:16 46.605468 -112.589531 90 34573ft 500kts
28-Nov-23 13:17 46.607871 -112.385882 90 34599ft 503kts
28-Nov-23 13:18 46.609873 -112.182703 91 34608ft 502kts
28-Nov-23 13:19 46.611363 -111.980161 92 34617ft 501kts
28-Nov-23 13:20 46.589003 -111.780958 103 34563ft 497kts
28-Nov-23 13:21 46.562804 -111.584027 103 34553ft 498kts
28-Nov-23 13:22 46.536078 -111.385933 103 34546ft 499kts
28-Nov-23 13:23 46.509028 -111.188165 103 34536ft 498kts
28-Nov-23 13:24 46.481722 -110.991242 103 34494ft 498kts
28-Nov-23 13:25 46.447065 -110.797042 107 34459ft 497kts
28-Nov-23 13:26 46.404287 -110.606104 110 34454ft 498kts
28-Nov-23 13:27 46.360466 -110.414889 110 34472ft 499kts
28-Nov-23 13:28 46.317570 -110.226311 110 32869ft 483kts
28-Nov-23 13:29 46.276068 -110.044062 110 30429ft 473kts
28-Nov-23 13:30 46.235445 -109.866258 109 28135ft 458kts
28-Nov-23 13:31 46.195791 -109.693730 108 25828ft 445kts
28-Nov-23 13:32 46.157174 -109.526919 107 23635ft 429kts
28-Nov-23 13:33 46.115164 -109.369655 109 21468ft 412kts
28-Nov-23 13:34 46.078671 -109.216788 107 19350ft 393kts
28-Nov-23 13:35 46.045928 -109.069175 106 17139ft 380kts
28-Nov-23 13:36 46.013926 -108.927634 106 15176ft 364kts
28-Nov-23 13:37 45.982312 -108.791825 107 13265ft 350kts
28-Nov-23 13:38 45.951519 -108.662008 108 11420ft 328kts
28-Nov-23 13:39 45.922961 -108.543264 108 9739ft 299kts
28-Nov-23 13:40 45.897468 -108.438316 110 8251ft 263kts
28-Nov-23 13:41 45.871457 -108.343141 120 7264ft 239kts
28-Nov-23 13:42 45.819213 -108.316163 189 6444ft 190kts
28-Nov-23 13:43 45.780443 -108.346231 232 5775ft 151kts
28-Nov-23 13:44 45.771781 -108.397710 275 5200ft 130kts
28-Nov-23 13:45 45.784235 -108.447015 286 4569ft 130kts
28-Nov-23 13:46 45.796240 -108.495399 286 3810ft 131kts
28-Nov-23 13:47 45.807693 -108.536887 293 3530ft 47kts
28-Nov-23 13:48 45.807700 -108.540435 206 3548ft 0kts
28-Nov-23 13:49 45.806691 -108.539974 109 3551ft 12kts
28-Nov-23 13:50 45.804512 -108.532950 134 3523ft 26kts
28-Nov-23 13:51 45.803883 -108.532148 125 3520ft 0kts

Navigation Log

Ident Type
Flight plan parsing failed, navigation log unavailable